createdAt,value
2022-10-31T00:01:53.993Z,16.78
2022-10-31T00:04:21.681Z,16.84
2022-10-31T00:06:49.287Z,16.89
2022-10-31T00:09:16.887Z,16.90
2022-10-31T00:11:44.564Z,16.89
2022-10-31T00:14:12.172Z,16.91
2022-10-31T00:16:42.664Z,16.95
2022-10-31T00:19:11.752Z,16.93
2022-10-31T00:21:39.572Z,16.96
2022-10-31T00:24:08.069Z,17.07
2022-10-31T00:26:35.715Z,17.12
2022-10-31T00:29:03.714Z,17.11
2022-10-31T00:31:33.313Z,17.19
2022-10-31T00:34:00.991Z,17.29
2022-10-31T00:36:30.413Z,17.20
2022-10-31T00:38:59.871Z,17.02
2022-10-31T00:41:28.931Z,16.95
2022-10-31T00:43:57.791Z,16.92
2022-10-31T00:46:27.113Z,16.89
2022-10-31T00:48:54.819Z,17.13
2022-10-31T00:51:22.461Z,17.00
2022-10-31T00:53:52.525Z,16.92
2022-10-31T00:56:25.209Z,16.86
2022-10-31T00:58:52.855Z,16.75
2022-10-31T01:01:20.584Z,16.69
2022-10-31T01:03:48.240Z,16.60
2022-10-31T01:06:18.119Z,16.47
2022-10-31T01:08:46.376Z,16.41
2022-10-31T01:11:17.248Z,16.40
2022-10-31T01:13:50.556Z,16.41
2022-10-31T01:16:20.279Z,16.57
2022-10-31T01:18:50.799Z,16.78
2022-10-31T01:21:20.426Z,16.77
2022-10-31T01:23:48.581Z,16.61
2022-10-31T01:26:19.327Z,16.50
2022-10-31T01:28:51.523Z,16.52
2022-10-31T01:31:21.892Z,16.60
2022-10-31T01:33:50.274Z,16.51
2022-10-31T01:36:19.800Z,16.48
2022-10-31T01:38:48.318Z,16.62
2022-10-31T01:41:20.113Z,16.60
2022-10-31T01:43:50.881Z,16.52
2022-10-31T01:46:22.455Z,16.65
2022-10-31T01:48:52.079Z,16.52
2022-10-31T01:51:22.757Z,16.41
2022-10-31T01:53:54.788Z,16.35
2022-10-31T01:56:25.595Z,16.28
2022-10-31T01:58:54.715Z,16.23
2022-10-31T02:01:22.986Z,16.21
2022-10-31T02:03:51.349Z,16.09
2022-10-31T02:06:31.305Z,16.03
2022-10-31T02:09:01.461Z,16.08
2022-10-31T02:11:34.919Z,16.04
2022-10-31T02:14:03.561Z,16.02
2022-10-31T02:16:31.339Z,16.09
2022-10-31T02:18:59.271Z,16.10
2022-10-31T02:21:34.940Z,16.08
2022-10-31T02:24:23.799Z,16.13
2022-10-31T02:27:14.280Z,16.05
2022-10-31T02:30:11.867Z,16.02
2022-10-31T02:33:08.077Z,15.99
2022-10-31T02:35:44.840Z,16.04
2022-10-31T02:38:24.172Z,16.08
2022-10-31T02:41:01.820Z,16.19
2022-10-31T02:43:37.116Z,16.37
2022-10-31T02:46:10.874Z,16.38
2022-10-31T02:48:41.968Z,16.28
2022-10-31T02:51:11.993Z,16.20
2022-10-31T02:53:42.881Z,16.03
2022-10-31T02:56:15.110Z,16.00
2022-10-31T02:58:46.902Z,15.91
2022-10-31T03:01:29.537Z,15.90
2022-10-31T03:04:11.924Z,15.95
2022-10-31T03:06:47.312Z,16.20
2022-10-31T03:09:23.415Z,16.24
2022-10-31T03:11:58.579Z,16.18
2022-10-31T03:14:33.563Z,16.13
2022-10-31T03:17:03.778Z,16.14
2022-10-31T03:19:37.087Z,16.13
2022-10-31T03:22:09.439Z,16.14
2022-10-31T03:24:40.617Z,16.17
2022-10-31T03:27:11.649Z,16.00
2022-10-31T03:29:42.199Z,16.02
2022-10-31T03:32:16.597Z,15.90
2022-10-31T03:34:48.116Z,15.92
2022-10-31T03:37:20.136Z,15.86
2022-10-31T03:39:50.578Z,15.77
2022-10-31T03:42:22.591Z,15.73
2022-10-31T03:44:55.565Z,15.72
2022-10-31T03:47:24.065Z,15.75
2022-10-31T03:49:53.233Z,15.75
2022-10-31T03:52:28.184Z,15.86
2022-10-31T03:54:59.046Z,15.82
2022-10-31T03:57:31.801Z,15.82
2022-10-31T04:00:04.137Z,15.78
2022-10-31T04:02:34.246Z,15.83
2022-10-31T04:05:04.879Z,15.89
2022-10-31T04:07:37.447Z,15.97
2022-10-31T04:10:09.377Z,15.91
2022-10-31T04:12:39.843Z,15.80
2022-10-31T04:15:10.658Z,15.78
2022-10-31T04:17:42.413Z,15.73
2022-10-31T04:20:12.446Z,15.81
2022-10-31T04:22:40.079Z,15.78
2022-10-31T04:25:09.133Z,15.66
2022-10-31T04:27:36.689Z,15.54
2022-10-31T04:30:04.891Z,15.50
2022-10-31T04:32:32.437Z,15.49
2022-10-31T04:35:00.036Z,15.44
2022-10-31T04:37:28.919Z,15.42
2022-10-31T04:39:56.525Z,15.48
2022-10-31T04:42:24.264Z,15.47
2022-10-31T04:44:51.873Z,15.60
2022-10-31T04:47:19.482Z,15.61
2022-10-31T04:49:47.214Z,15.68
2022-10-31T04:52:15.200Z,15.73
2022-10-31T04:54:44.212Z,15.68
2022-10-31T04:57:11.832Z,15.83
2022-10-31T04:59:39.424Z,15.84
2022-10-31T05:02:07.146Z,15.66
2022-10-31T05:04:34.828Z,15.61
2022-10-31T05:07:02.496Z,15.56
2022-10-31T05:09:30.090Z,15.50
2022-10-31T05:11:59.118Z,15.42
2022-10-31T05:14:26.731Z,15.39
2022-10-31T05:16:54.326Z,15.33
2022-10-31T05:19:21.926Z,15.27
2022-10-31T05:21:49.539Z,15.30
2022-10-31T05:24:17.118Z,15.26
2022-10-31T05:26:44.699Z,15.28
2022-10-31T05:29:13.720Z,15.34
2022-10-31T05:31:41.303Z,15.32
2022-10-31T05:34:08.890Z,15.37
2022-10-31T05:36:36.501Z,15.42
2022-10-31T05:39:04.788Z,15.52
2022-10-31T05:41:32.408Z,15.57
2022-10-31T05:44:00.648Z,15.50
2022-10-31T05:46:29.707Z,15.52
2022-10-31T05:49:00.191Z,15.48
2022-10-31T05:51:30.340Z,15.40
2022-10-31T05:53:57.963Z,15.35
2022-10-31T05:56:25.580Z,15.32
2022-10-31T05:58:53.191Z,15.27
2022-10-31T06:01:20.882Z,15.16
2022-10-31T06:03:49.851Z,15.13
2022-10-31T06:06:17.452Z,15.22
2022-10-31T06:08:45.118Z,15.37
2022-10-31T06:11:12.760Z,15.41
2022-10-31T06:13:40.398Z,15.39
2022-10-31T06:16:08.387Z,15.40
2022-10-31T06:18:36.001Z,15.41
2022-10-31T06:21:05.156Z,15.38
2022-10-31T06:23:32.745Z,15.27
2022-10-31T06:26:00.392Z,15.16
2022-10-31T06:28:27.973Z,15.08
2022-10-31T06:30:55.613Z,15.03
2022-10-31T06:33:23.427Z,15.04
2022-10-31T06:35:51.114Z,15.02
2022-10-31T06:38:20.082Z,15.10
2022-10-31T06:40:47.756Z,15.16
2022-10-31T06:43:15.780Z,15.30
2022-10-31T06:45:43.418Z,15.63
2022-10-31T06:48:17.282Z,15.84
2022-10-31T06:50:45.841Z,15.74
2022-10-31T06:53:14.156Z,15.56
2022-10-31T06:55:43.343Z,15.37
2022-10-31T06:58:12.490Z,15.41
2022-10-31T07:00:40.201Z,15.47
2022-10-31T07:03:11.049Z,15.51
2022-10-31T07:05:38.819Z,15.44
2022-10-31T07:08:11.635Z,15.31
2022-10-31T07:10:41.034Z,15.19
2022-10-31T07:13:13.596Z,15.17
2022-10-31T07:15:43.064Z,15.27
2022-10-31T07:18:12.257Z,15.35
2022-10-31T07:20:40.007Z,15.30
2022-10-31T07:23:08.015Z,15.26
2022-10-31T07:25:35.634Z,15.33
2022-10-31T07:28:03.379Z,15.45
2022-10-31T07:30:32.743Z,15.46
2022-10-31T07:33:00.779Z,15.46
2022-10-31T07:35:30.122Z,15.54
2022-10-31T07:37:58.565Z,15.65
2022-10-31T07:40:26.893Z,15.59
2022-10-31T07:42:55.111Z,15.50
2022-10-31T07:45:23.100Z,15.50
2022-10-31T07:47:53.271Z,15.51
2022-10-31T07:50:23.151Z,15.53
2022-10-31T07:53:00.073Z,15.56
2022-10-31T07:55:27.764Z,15.59
2022-10-31T07:57:59.868Z,15.56
2022-10-31T08:00:27.945Z,15.54
2022-10-31T08:03:01.574Z,15.53
2022-10-31T08:05:29.919Z,15.55
2022-10-31T08:07:58.910Z,15.59
2022-10-31T08:10:27.924Z,16.02
2022-10-31T08:12:59.602Z,16.28
2022-10-31T08:15:27.844Z,16.20
2022-10-31T08:17:55.514Z,16.23
2022-10-31T08:20:24.740Z,16.15
2022-10-31T08:22:56.954Z,16.12
2022-10-31T08:25:25.225Z,16.18
2022-10-31T08:27:53.545Z,16.16
2022-10-31T08:30:21.527Z,16.54
2022-10-31T08:32:49.567Z,16.73
2022-10-31T08:35:17.317Z,16.80
2022-10-31T08:37:46.368Z,16.51
2022-10-31T08:40:14.085Z,16.51
2022-10-31T08:42:41.686Z,16.84
2022-10-31T08:45:09.783Z,17.05
2022-10-31T08:47:37.765Z,16.89
2022-10-31T08:50:05.872Z,16.80
2022-10-31T08:52:58.764Z,16.99
2022-10-31T08:55:22.705Z,16.78
2022-10-31T08:57:50.318Z,16.62
2022-10-31T09:00:18.243Z,16.52
2022-10-31T09:02:45.813Z,16.49
2022-10-31T09:05:13.412Z,16.46
2022-10-31T09:07:41.000Z,16.45
2022-10-31T09:10:09.219Z,16.46
2022-10-31T09:12:38.106Z,16.56
2022-10-31T09:15:07.404Z,16.55
2022-10-31T09:17:35.038Z,16.65
2022-10-31T09:20:02.620Z,16.78
2022-10-31T09:22:30.259Z,16.73
2022-10-31T09:24:57.811Z,16.90
2022-10-31T09:27:25.442Z,16.87
2022-10-31T09:29:54.377Z,16.82
2022-10-31T09:32:21.976Z,16.86
2022-10-31T09:34:49.587Z,16.85
2022-10-31T09:37:17.124Z,16.94
2022-10-31T09:39:44.765Z,16.99
2022-10-31T09:42:50.794Z,17.02
2022-10-31T09:45:24.800Z,17.10
2022-10-31T09:48:03.536Z,17.36
2022-10-31T09:50:39.651Z,17.28
2022-10-31T09:53:12.360Z,17.66
2022-10-31T09:55:44.304Z,18.01
2022-10-31T09:58:17.865Z,18.13
2022-10-31T10:00:52.835Z,18.02
2022-10-31T10:03:31.594Z,18.00
2022-10-31T10:06:08.424Z,17.76
2022-10-31T10:08:37.716Z,17.60
2022-10-31T10:11:20.028Z,17.48
2022-10-31T10:14:00.894Z,17.38
2022-10-31T10:16:45.041Z,17.54
2022-10-31T10:19:27.788Z,17.60
2022-10-31T10:22:01.516Z,18.20
2022-10-31T10:24:43.506Z,18.14
2022-10-31T10:27:23.418Z,18.03
2022-10-31T10:29:58.313Z,17.99
2022-10-31T10:32:30.424Z,18.48
2022-10-31T10:35:04.163Z,18.64
2022-10-31T10:37:36.141Z,18.68
2022-10-31T10:40:10.388Z,18.66
2022-10-31T10:42:56.513Z,18.57
2022-10-31T10:45:41.808Z,18.57
2022-10-31T10:48:17.578Z,18.68
2022-10-31T10:50:50.770Z,18.44
2022-10-31T10:53:36.621Z,18.24
2022-10-31T10:56:16.879Z,18.25
2022-10-31T10:58:46.015Z,18.25
2022-10-31T11:03:49.579Z,18.87
2022-10-31T11:06:26.300Z,18.99
2022-10-31T11:08:54.590Z,19.01
2022-10-31T11:11:28.644Z,19.06
2022-10-31T11:14:01.690Z,19.05
2022-10-31T11:16:35.573Z,19.00
2022-10-31T11:19:19.705Z,19.07
2022-10-31T11:21:52.781Z,19.13
2022-10-31T11:24:23.571Z,19.19
2022-10-31T11:26:53.291Z,19.24
2022-10-31T11:29:25.673Z,19.19
2022-10-31T11:31:55.404Z,19.19
2022-10-31T11:34:31.450Z,19.32
2022-10-31T11:37:04.937Z,19.34
2022-10-31T11:39:32.723Z,19.33
2022-10-31T11:42:08.688Z,19.36
2022-10-31T11:44:36.780Z,19.29
2022-10-31T11:47:07.349Z,19.41
2022-10-31T11:49:38.470Z,19.33
2022-10-31T11:52:08.729Z,19.47
2022-10-31T11:54:46.684Z,19.46
2022-10-31T11:57:29.341Z,19.57
2022-10-31T11:59:59.216Z,19.61
2022-10-31T12:02:27.834Z,19.49
2022-10-31T12:05:04.937Z,19.50
2022-10-31T12:07:33.026Z,19.41
2022-10-31T12:10:00.689Z,19.30
2022-10-31T12:12:44.529Z,19.15
2022-10-31T12:15:31.954Z,19.52
2022-10-31T12:18:24.957Z,19.51
2022-10-31T12:21:06.901Z,19.50
2022-10-31T12:23:44.641Z,19.37
2022-10-31T12:26:20.413Z,19.43
2022-10-31T12:29:03.698Z,19.50
2022-10-31T12:31:51.133Z,19.50
2022-10-31T12:34:49.318Z,19.47
2022-10-31T12:37:30.695Z,19.42
2022-10-31T12:40:24.251Z,19.20
2022-10-31T12:43:06.682Z,19.55
2022-10-31T12:45:49.462Z,19.48
2022-10-31T12:48:43.819Z,19.33
2022-10-31T12:51:21.112Z,19.33
2022-10-31T12:54:05.632Z,19.26
2022-10-31T12:56:46.159Z,19.16
2022-10-31T12:59:21.854Z,19.05
2022-10-31T13:01:56.478Z,18.99
2022-10-31T13:04:37.168Z,18.95
2022-10-31T13:07:10.595Z,18.92
2022-10-31T13:09:49.609Z,18.93
2022-10-31T13:12:21.340Z,18.92
2022-10-31T13:14:52.602Z,19.02
2022-10-31T13:17:27.324Z,18.99
2022-10-31T13:20:03.631Z,18.97
2022-10-31T13:22:36.606Z,18.98
2022-10-31T13:25:13.881Z,19.00
2022-10-31T13:27:50.008Z,18.98
2022-10-31T13:30:21.949Z,19.04
2022-10-31T13:32:53.829Z,19.06
2022-10-31T13:35:27.261Z,19.07
2022-10-31T13:38:06.531Z,19.07
2022-10-31T13:40:44.929Z,19.05
2022-10-31T13:43:21.124Z,19.04
2022-10-31T13:45:53.238Z,19.05
2022-10-31T13:48:35.801Z,19.07
2022-10-31T13:51:05.920Z,19.07
2022-10-31T13:53:43.519Z,19.10
2022-10-31T13:56:23.138Z,19.05
2022-10-31T13:59:01.943Z,19.02
2022-10-31T14:01:31.021Z,19.01
2022-10-31T14:04:15.712Z,19.01
2022-10-31T14:06:53.105Z,18.98
2022-10-31T14:09:25.380Z,18.98
2022-10-31T14:11:54.953Z,19.03
2022-10-31T14:14:25.110Z,19.14
2022-10-31T14:16:57.573Z,19.34
2022-10-31T14:19:26.456Z,19.57
2022-10-31T14:21:54.086Z,19.84
2022-10-31T14:24:38.699Z,20.05
2022-10-31T14:27:52.897Z,20.12
2022-10-31T14:30:25.325Z,20.12
2022-10-31T14:32:55.876Z,20.02
2022-10-31T14:35:30.446Z,19.93
2022-10-31T14:38:22.673Z,19.81
2022-10-31T14:41:05.831Z,19.71
2022-10-31T14:43:49.273Z,19.61
2022-10-31T14:46:32.699Z,19.52
2022-10-31T14:49:15.552Z,19.47
2022-10-31T14:51:46.595Z,19.49
2022-10-31T14:54:17.833Z,19.52
2022-10-31T14:56:55.228Z,19.55
2022-10-31T14:59:26.415Z,19.53
2022-10-31T15:02:00.602Z,19.49
2022-10-31T15:04:30.303Z,19.46
2022-10-31T15:07:04.288Z,19.42
2022-10-31T15:09:33.929Z,19.37
2022-10-31T15:12:02.098Z,19.35
2022-10-31T15:14:31.840Z,19.32
2022-10-31T15:17:05.152Z,19.27
2022-10-31T15:19:37.388Z,19.26
2022-10-31T15:22:05.240Z,19.22
2022-10-31T15:24:37.328Z,19.19
2022-10-31T15:27:06.009Z,19.15
2022-10-31T15:29:33.896Z,19.10
2022-10-31T15:32:14.998Z,19.08
2022-10-31T15:34:44.412Z,19.05
2022-10-31T15:37:14.673Z,19.07
2022-10-31T15:39:42.399Z,19.04
2022-10-31T15:42:20.374Z,19.00
2022-10-31T15:44:54.028Z,18.98
2022-10-31T15:47:25.379Z,18.98
2022-10-31T15:49:54.776Z,18.94
2022-10-31T15:52:31.189Z,18.92
2022-10-31T15:55:02.965Z,18.99
2022-10-31T15:57:31.305Z,18.95
2022-10-31T15:59:59.614Z,18.88
2022-10-31T16:02:29.589Z,18.84
2022-10-31T16:04:59.298Z,18.79
2022-10-31T16:07:27.464Z,18.74
2022-10-31T16:09:57.617Z,18.78
2022-10-31T16:12:27.113Z,18.75
2022-10-31T16:14:57.037Z,18.70
2022-10-31T16:17:28.981Z,18.66
2022-10-31T16:20:00.115Z,18.60
2022-10-31T16:22:30.406Z,18.56
2022-10-31T16:25:03.406Z,18.52
2022-10-31T16:27:34.549Z,18.47
2022-10-31T16:30:05.361Z,18.43
2022-10-31T16:32:36.678Z,18.40
2022-10-31T16:35:20.691Z,18.36
2022-10-31T16:37:48.339Z,18.34
2022-10-31T16:40:17.308Z,18.31
2022-10-31T16:42:46.366Z,18.29
2022-10-31T16:45:18.728Z,18.30
2022-10-31T16:47:49.235Z,18.30
2022-10-31T16:50:21.336Z,18.30
2022-10-31T16:55:42.937Z,18.21
2022-10-31T16:58:19.633Z,18.18
2022-10-31T17:00:47.742Z,18.12
2022-10-31T17:03:16.744Z,18.10
2022-10-31T17:05:44.457Z,18.08
2022-10-31T17:08:12.638Z,18.05
2022-10-31T17:10:41.699Z,18.03
2022-10-31T17:13:16.501Z,18.01
2022-10-31T17:15:48.072Z,17.97
2022-10-31T17:18:20.567Z,17.94
2022-10-31T17:20:54.318Z,17.93
2022-10-31T17:23:21.935Z,17.91
2022-10-31T17:25:49.521Z,17.88
2022-10-31T17:28:17.149Z,17.90
2022-10-31T17:30:45.316Z,17.89
2022-10-31T17:33:15.104Z,17.91
2022-10-31T17:35:44.688Z,17.91
2022-10-31T17:38:12.433Z,17.87
2022-10-31T17:40:42.191Z,17.83
2022-10-31T17:43:13.634Z,17.78
2022-10-31T17:45:42.755Z,17.75
2022-10-31T17:48:12.419Z,17.73
2022-10-31T17:50:40.135Z,17.68
2022-10-31T17:53:09.134Z,17.70
2022-10-31T17:55:37.714Z,17.67
2022-10-31T17:58:06.204Z,17.65
2022-10-31T18:00:37.023Z,17.61
2022-10-31T18:03:07.753Z,17.61
2022-10-31T18:05:35.414Z,17.57
2022-10-31T18:08:05.773Z,17.54
2022-10-31T18:10:34.809Z,17.50
2022-10-31T18:13:02.646Z,17.53
2022-10-31T18:15:30.574Z,17.52
2022-10-31T18:17:58.391Z,17.50
2022-10-31T18:20:30.768Z,17.47
2022-10-31T18:22:58.369Z,17.45
2022-10-31T18:25:28.736Z,17.40
2022-10-31T18:27:57.917Z,17.37
2022-10-31T18:30:25.639Z,17.38
2022-10-31T18:32:53.211Z,17.43
2022-10-31T18:35:21.056Z,17.43
2022-10-31T18:37:48.619Z,17.38
2022-10-31T18:40:16.499Z,17.34
2022-10-31T18:42:44.223Z,17.37
2022-10-31T18:45:31.308Z,17.37
2022-10-31T18:48:01.412Z,17.31
2022-10-31T18:50:29.172Z,17.31
2022-10-31T18:52:57.288Z,17.35
2022-10-31T18:55:24.942Z,17.42
2022-10-31T18:57:52.589Z,17.65
2022-10-31T19:00:22.052Z,17.63
2022-10-31T19:02:49.653Z,17.45
2022-10-31T19:05:17.290Z,17.34
2022-10-31T19:07:44.919Z,17.31
2022-10-31T19:10:12.464Z,17.18
2022-10-31T19:12:40.099Z,17.11
2022-10-31T19:15:08.346Z,17.04
2022-10-31T19:17:37.288Z,17.00
2022-10-31T19:20:05.437Z,16.96
2022-10-31T19:22:33.032Z,16.95
2022-10-31T19:25:00.677Z,16.97
2022-10-31T19:27:28.259Z,16.98
2022-10-31T19:29:55.863Z,16.99
2022-10-31T19:32:23.426Z,16.96
2022-10-31T19:34:52.334Z,16.93
2022-10-31T19:37:22.709Z,16.95
2022-10-31T19:39:53.547Z,16.96
2022-10-31T19:42:25.559Z,16.95
2022-10-31T19:44:55.341Z,16.87
2022-10-31T19:47:23.003Z,16.86
2022-10-31T19:49:52.001Z,16.85
2022-10-31T19:52:19.622Z,16.85
2022-10-31T19:54:47.228Z,16.84
2022-10-31T19:57:14.804Z,16.81
2022-10-31T19:59:42.374Z,16.75
2022-10-31T20:02:19.594Z,16.76
2022-10-31T20:04:47.582Z,16.84
2022-10-31T20:07:16.565Z,16.82
2022-10-31T20:09:46.091Z,16.81
2022-10-31T20:12:13.634Z,16.85
2022-10-31T20:14:41.241Z,16.85
2022-10-31T20:17:09.437Z,16.96
2022-10-31T20:19:37.141Z,16.88
2022-10-31T20:22:04.951Z,16.88
2022-10-31T20:24:34.177Z,16.90
2022-10-31T20:27:02.657Z,16.87
2022-10-31T20:29:30.216Z,16.93
2022-10-31T20:31:58.056Z,17.06
2022-10-31T20:34:25.731Z,16.97
2022-10-31T20:36:53.351Z,17.00
2022-10-31T20:39:20.973Z,16.90
2022-10-31T20:41:49.995Z,16.88
2022-10-31T20:44:17.688Z,16.88
2022-10-31T20:46:45.300Z,16.82
2022-10-31T20:49:12.837Z,16.73
2022-10-31T20:51:40.490Z,16.61
2022-10-31T20:54:08.067Z,16.54
2022-10-31T20:56:35.753Z,16.55
2022-10-31T20:59:04.806Z,16.58
2022-10-31T21:01:35.891Z,16.76
2022-10-31T21:04:04.226Z,16.80
2022-10-31T21:06:31.808Z,16.82
2022-10-31T21:08:59.515Z,16.76
2022-10-31T21:11:28.497Z,16.71
2022-10-31T21:13:56.241Z,16.64
2022-10-31T21:16:28.219Z,16.70
2022-10-31T21:18:56.627Z,16.80
2022-10-31T21:21:30.778Z,16.83
2022-10-31T21:24:02.011Z,16.93
2022-10-31T21:26:33.369Z,16.89
2022-10-31T21:29:02.032Z,16.84
2022-10-31T21:31:31.405Z,16.76
2022-10-31T21:33:59.210Z,16.73
2022-10-31T21:36:27.178Z,16.90
2022-10-31T21:38:56.077Z,16.73
2022-10-31T21:41:25.698Z,16.62
2022-10-31T21:43:55.156Z,16.70
2022-10-31T21:46:24.257Z,16.61
2022-10-31T21:48:53.458Z,16.69
2022-10-31T21:51:22.631Z,16.58
2022-10-31T21:54:08.276Z,16.44
2022-10-31T21:56:36.268Z,16.48
2022-10-31T21:59:04.835Z,16.49
2022-10-31T22:01:33.181Z,16.38
2022-10-31T22:04:02.647Z,16.46
2022-10-31T22:06:31.073Z,16.41
2022-10-31T22:08:59.734Z,16.38
2022-10-31T22:11:28.955Z,16.35
2022-10-31T22:13:57.842Z,16.35
2022-10-31T22:16:26.461Z,16.40
2022-10-31T22:18:55.042Z,16.30
2022-10-31T22:21:26.280Z,16.33
2022-10-31T22:23:56.491Z,16.38
2022-10-31T22:26:24.293Z,16.45
2022-10-31T22:28:55.728Z,16.39
2022-10-31T22:31:25.326Z,16.17
2022-10-31T22:33:53.709Z,16.06
2022-10-31T22:36:25.350Z,16.03
2022-10-31T22:38:52.970Z,16.01
2022-10-31T22:41:22.332Z,16.04
2022-10-31T22:43:50.596Z,16.04
2022-10-31T22:46:20.976Z,16.02
2022-10-31T22:48:51.535Z,15.85
2022-10-31T22:51:21.352Z,15.81
2022-10-31T22:53:51.228Z,15.87
2022-10-31T22:56:22.499Z,15.90
2022-10-31T22:58:50.415Z,15.85
2022-10-31T23:01:20.210Z,15.80
2022-10-31T23:03:48.606Z,15.72
2022-10-31T23:06:17.706Z,15.66
2022-10-31T23:08:46.313Z,15.68
2022-10-31T23:11:17.143Z,15.53
2022-10-31T23:14:03.441Z,15.54
2022-10-31T23:18:59.219Z,15.62
2022-10-31T23:21:44.006Z,16.07
2022-10-31T23:24:12.652Z,16.12
2022-10-31T23:26:59.297Z,16.16
2022-10-31T23:29:26.910Z,16.25
2022-10-31T23:31:54.626Z,16.00
2022-10-31T23:34:23.904Z,15.92
2022-10-31T23:36:51.589Z,15.88
2022-10-31T23:39:21.355Z,15.79
2022-10-31T23:41:53.169Z,15.79
2022-10-31T23:44:20.864Z,15.85
2022-10-31T23:46:48.463Z,15.88
2022-10-31T23:49:16.069Z,15.84
2022-10-31T23:51:43.660Z,15.73
2022-10-31T23:54:11.347Z,15.84
2022-10-31T23:56:39.078Z,16.03
2022-10-31T23:59:08.444Z,16.12
